Time,TemperatureF,DewpointF,PressureIn,WindDirection,WindDirectionDegrees,WindSpeedMPH,WindSpeedGustMPH,Humidity,HourlyPrecipIn,Conditions,Clouds,dailyrainin,SoftwareType,DateUTC
2013-08-17 00:01:00,60.8,51.3,30.22,SSW,206,0.0,0.0,71,0.00,,---,0.00,VWS V14.01,2013-08-17 04:01:00,
2013-08-17 00:03:00,60.8,51.3,30.22,SE,133,4.1,6.6,71,0.00,,---,0.00,VWS V14.01,2013-08-17 04:03:00,
2013-08-17 00:08:00,60.8,51.3,30.22,South,179,0.0,0.0,71,0.00,,---,0.00,VWS V14.01,2013-08-17 04:08:00,
2013-08-17 00:13:00,60.8,51.3,30.22,SE,137,0.0,5.0,71,0.00,,---,0.00,VWS V14.01,2013-08-17 04:13:00,
2013-08-17 00:18:00,60.8,51.3,30.22,SE,136,0.0,0.0,71,0.00,,---,0.00,VWS V14.01,2013-08-17 04:18:00,
2013-08-17 00:24:00,60.6,51.7,30.22,SE,143,0.0,0.0,72,0.00,,---,0.00,VWS V14.01,2013-08-17 04:24:00,
2013-08-17 00:29:00,60.4,51.5,30.22,South,188,0.0,0.0,72,0.00,,---,0.00,VWS V14.01,2013-08-17 04:29:00,
2013-08-17 00:34:00,60.3,51.3,30.22,South,179,0.0,0.0,72,0.00,,---,0.00,VWS V14.01,2013-08-17 04:34:00,
2013-08-17 00:39:00,60.1,51.1,30.22,South,179,0.0,0.0,72,0.00,,---,0.00,VWS V14.01,2013-08-17 04:39:00,
2013-08-17 00:44:00,59.9,51.0,30.22,South,179,0.0,0.0,72,0.00,,---,0.00,VWS V14.01,2013-08-17 04:44:00,
2013-08-17 00:49:00,59.9,51.0,30.22,South,179,0.0,0.0,72,0.00,,---,0.00,VWS V14.01,2013-08-17 04:49:00,
2013-08-17 00:54:00,59.7,50.8,30.22,South,179,0.0,0.0,72,0.00,,---,0.00,VWS V14.01,2013-08-17 04:54:00,
2013-08-17 00:59:00,59.5,50.6,30.22,SSE,168,5.0,5.8,72,0.00,,---,0.00,VWS V14.01,2013-08-17 04:59:00,
2013-08-17 01:04:00,59.4,50.5,30.22,SSE,158,4.1,4.1,72,0.00,,---,0.00,VWS V14.01,2013-08-17 05:04:00,
2013-08-17 01:09:00,59.0,50.1,30.22,SSE,158,0.0,0.0,72,0.00,,---,0.00,VWS V14.01,2013-08-17 05:09:00,
2013-08-17 01:14:00,58.8,50.4,30.22,SSE,158,0.0,0.0,74,0.00,,---,0.00,VWS V14.01,2013-08-17 05:14:00,
2013-08-17 01:20:00,58.6,50.3,30.22,SSE,158,0.0,0.0,74,0.00,,---,0.00,VWS V14.01,2013-08-17 05:20:00,
2013-08-17 01:25:00,58.5,50.1,30.22,SSE,158,0.0,0.0,74,0.00,,---,0.00,VWS V14.01,2013-08-17 05:25:00,
2013-08-17 01:30:00,58.3,50.4,30.22,SSE,158,0.0,0.0,75,0.00,,---,0.00,VWS V14.01,2013-08-17 05:30:00,
2013-08-17 01:35:00,58.3,50.4,30.22,SSE,158,0.0,0.0,75,0.00,,---,0.00,VWS V14.01,2013-08-17 05:35:00,
2013-08-17 01:40:00,58.3,50.4,30.22,SSE,158,5.0,5.0,75,0.00,,---,0.00,VWS V14.01,2013-08-17 05:40:00,
2013-08-17 01:45:00,58.1,50.2,30.22,SE,143,5.8,5.8,75,0.00,,---,0.00,VWS V14.01,2013-08-17 05:45:00,
2013-08-17 01:50:00,57.9,50.1,30.22,SE,140,5.0,5.0,75,0.00,,---,0.00,VWS V14.01,2013-08-17 05:50:00,
2013-08-17 01:55:00,57.7,49.9,30.22,SE,144,5.0,5.8,75,0.00,,---,0.00,VWS V14.01,2013-08-17 05:55:00,
2013-08-17 02:00:00,57.6,49.7,30.22,SE,144,4.1,5.8,75,0.00,,---,0.00,VWS V14.01,2013-08-17 06:00:00,
2013-08-17 02:05:00,57.4,50.0,30.22,SE,145,4.1,5.0,76,0.00,,---,0.00,VWS V14.01,2013-08-17 06:05:00,
2013-08-17 02:11:00,57.2,49.9,30.22,SE,145,4.1,4.1,76,0.00,,---,0.00,VWS V14.01,2013-08-17 06:11:00,
2013-08-17 02:16:00,57.2,49.9,30.22,SE,145,0.0,0.0,76,0.00,,---,0.00,VWS V14.01,2013-08-17 06:16:00,
2013-08-17 02:20:00,56.8,49.5,30.22,SE,145,0.0,0.0,76,0.00,,---,0.00,VWS V14.01,2013-08-17 06:20:00,
2013-08-17 02:26:00,56.8,50.0,30.22,SE,145,0.0,0.0,78,0.00,,---,0.00,VWS V14.01,2013-08-17 06:26:00,
2013-08-17 02:31:00,56.7,49.8,30.22,SE,145,0.0,0.0,78,0.00,,---,0.00,VWS V14.01,2013-08-17 06:31:00,
2013-08-17 02:36:00,56.5,49.7,30.22,SE,145,0.0,0.0,78,0.00,,---,0.00,VWS V14.01,2013-08-17 06:36:00,
2013-08-17 02:41:00,56.3,49.5,30.22,SE,145,0.0,0.0,78,0.00,,---,0.00,VWS V14.01,2013-08-17 06:41:00,
2013-08-17 02:46:00,56.3,50.0,30.22,SE,145,0.0,0.0,79,0.00,,---,0.00,VWS V14.01,2013-08-17 06:46:00,
2013-08-17 02:51:00,56.1,49.8,30.22,SE,145,0.0,0.0,79,0.00,,---,0.00,VWS V14.01,2013-08-17 06:51:00,
2013-08-17 02:56:00,55.9,49.6,30.22,SE,145,0.0,0.0,79,0.00,,---,0.00,VWS V14.01,2013-08-17 06:56:00,
2013-08-17 03:01:00,55.9,49.6,30.22,SE,145,0.0,0.0,79,0.00,,---,0.00,VWS V14.01,2013-08-17 07:01:00,
2013-08-17 03:07:00,55.9,49.6,30.22,SE,145,0.0,0.0,79,0.00,,---,0.00,VWS V14.01,2013-08-17 07:07:00,
2013-08-17 03:12:00,55.9,50.1,30.22,SE,145,0.0,0.0,81,0.00,,---,0.00,VWS V14.01,2013-08-17 07:12:00,
2013-08-17 03:17:00,55.8,49.9,30.22,SE,145,0.0,0.0,81,0.00,,---,0.00,VWS V14.01,2013-08-17 07:17:00,
2013-08-17 03:22:00,55.6,49.7,30.22,SE,145,0.0,0.0,81,0.00,,---,0.00,VWS V14.01,2013-08-17 07:22:00,
2013-08-17 03:27:00,55.6,49.7,30.22,SE,145,0.0,0.0,81,0.00,,---,0.00,VWS V14.01,2013-08-17 07:27:00,
2013-08-17 03:32:00,55.4,49.5,30.22,SE,145,0.0,0.0,81,0.00,,---,0.00,VWS V14.01,2013-08-17 07:32:00,
2013-08-17 03:37:00,55.4,49.5,30.22,SE,145,0.0,0.0,81,0.00,,---,0.00,VWS V14.01,2013-08-17 07:37:00,
2013-08-17 03:42:00,55.2,49.8,30.22,SE,145,0.0,0.0,82,0.00,,---,0.00,VWS V14.01,2013-08-17 07:42:00,
2013-08-17 03:47:00,55.2,49.8,30.22,SE,145,4.1,4.1,82,0.00,,---,0.00,VWS V14.01,2013-08-17 07:47:00,
2013-08-17 03:53:00,55.0,49.7,30.22,SE,145,0.0,0.0,82,0.00,,---,0.00,VWS V14.01,2013-08-17 07:53:00,
2013-08-17 03:58:00,55.0,49.7,30.22,SE,145,0.0,0.0,82,0.00,,---,0.00,VWS V14.01,2013-08-17 07:58:00,
2013-08-17 04:03:00,54.9,49.5,30.22,SE,145,0.0,0.0,82,0.00,,---,0.00,VWS V14.01,2013-08-17 08:03:00,
2013-08-17 04:08:00,54.9,49.9,30.22,SE,145,0.0,0.0,83,0.00,,---,0.00,VWS V14.01,2013-08-17 08:08:00,
2013-08-17 04:13:00,54.7,49.8,30.22,SE,145,0.0,0.0,83,0.00,,---,0.00,VWS V14.01,2013-08-17 08:13:00,
2013-08-17 04:18:00,54.7,49.8,30.22,SE,145,0.0,0.0,83,0.00,,---,0.00,VWS V14.01,2013-08-17 08:18:00,
2013-08-17 04:23:00,54.5,49.6,30.22,SE,145,4.1,5.0,83,0.00,,---,0.00,VWS V14.01,2013-08-17 08:23:00,
2013-08-17 04:28:00,54.5,49.6,30.22,SE,145,0.0,0.0,83,0.00,,---,0.00,VWS V14.01,2013-08-17 08:28:00,
2013-08-17 04:34:00,54.5,49.6,30.22,SE,145,0.0,0.0,83,0.00,,---,0.00,VWS V14.01,2013-08-17 08:34:00,
2013-08-17 04:39:00,54.5,49.6,30.22,SE,145,0.0,0.0,83,0.00,,---,0.00,VWS V14.01,2013-08-17 08:39:00,
2013-08-17 04:44:00,54.5,50.0,30.25,SE,145,0.0,0.0,85,0.00,,---,0.00,VWS V14.01,2013-08-17 08:44:00,
2013-08-17 04:49:00,54.3,49.8,30.25,SE,145,0.0,0.0,85,0.00,,---,0.00,VWS V14.01,2013-08-17 08:49:00,
2013-08-17 04:54:00,54.1,49.7,30.25,SE,145,0.0,0.0,85,0.00,,---,0.00,VWS V14.01,2013-08-17 08:54:00,
2013-08-17 04:59:00,54.0,49.5,30.22,SE,145,0.0,0.0,85,0.00,,---,0.00,VWS V14.01,2013-08-17 08:59:00,
2013-08-17 05:04:00,54.0,49.5,30.22,SE,145,0.0,0.0,85,0.00,,---,0.00,VWS V14.01,2013-08-17 09:04:00,
2013-08-17 05:09:00,54.0,49.5,30.22,SE,145,0.0,0.0,85,0.00,,---,0.00,VWS V14.01,2013-08-17 09:09:00,
2013-08-17 05:14:00,53.8,49.3,30.22,SE,145,0.0,0.0,85,0.00,,---,0.00,VWS V14.01,2013-08-17 09:14:00,
2013-08-17 05:20:00,53.6,49.1,30.22,SE,145,0.0,0.0,85,0.00,,---,0.00,VWS V14.01,2013-08-17 09:20:00,
2013-08-17 05:25:00,53.6,49.1,30.22,SE,145,0.0,0.0,85,0.00,,---,0.00,VWS V14.01,2013-08-17 09:25:00,
2013-08-17 05:30:00,53.6,49.1,30.22,SE,145,0.0,0.0,85,0.00,,---,0.00,VWS V14.01,2013-08-17 09:30:00,
2013-08-17 05:35:00,53.4,49.4,30.22,SE,145,0.0,0.0,86,0.00,,---,0.00,VWS V14.01,2013-08-17 09:35:00,
2013-08-17 05:40:00,53.4,49.4,30.22,SE,145,0.0,0.0,86,0.00,,---,0.00,VWS V14.01,2013-08-17 09:40:00,
2013-08-17 05:45:00,53.2,49.2,30.25,SE,145,0.0,0.0,86,0.00,,---,0.00,VWS V14.01,2013-08-17 09:45:00,
2013-08-17 05:50:00,53.2,49.2,30.25,SE,145,0.0,0.0,86,0.00,,---,0.00,VWS V14.01,2013-08-17 09:50:00,
2013-08-17 05:55:00,53.1,49.0,30.25,SE,145,0.0,0.0,86,0.00,,---,0.00,VWS V14.01,2013-08-17 09:55:00,
2013-08-17 06:00:00,53.1,49.0,30.25,SE,145,0.0,0.0,86,0.00,,---,0.00,VWS V14.01,2013-08-17 10:00:00,
2013-08-17 06:05:00,53.1,49.0,30.25,SE,145,0.0,0.0,86,0.00,,---,0.00,VWS V14.01,2013-08-17 10:05:00,
2013-08-17 06:10:00,53.1,49.5,30.25,SE,145,0.0,0.0,88,0.00,,---,0.00,VWS V14.01,2013-08-17 10:10:00,
2013-08-17 06:16:00,53.1,49.5,30.25,SE,145,0.0,0.0,88,0.00,,---,0.00,VWS V14.01,2013-08-17 10:16:00,
2013-08-17 06:21:00,52.9,49.3,30.25,SE,145,0.0,0.0,88,0.00,,---,0.00,VWS V14.01,2013-08-17 10:21:00,
2013-08-17 06:26:00,52.7,49.1,30.25,SE,145,0.0,0.0,88,0.00,,---,0.00,VWS V14.01,2013-08-17 10:26:00,
2013-08-17 06:31:00,52.7,49.1,30.22,SE,145,0.0,0.0,88,0.00,,---,0.00,VWS V14.01,2013-08-17 10:31:00,
2013-08-17 06:36:00,52.7,49.1,30.22,SE,145,0.0,0.0,88,0.00,,---,0.00,VWS V14.01,2013-08-17 10:36:00,
2013-08-17 06:41:00,52.7,49.1,30.22,SE,145,0.0,0.0,88,0.00,,---,0.00,VWS V14.01,2013-08-17 10:41:00,
2013-08-17 06:46:00,52.7,49.1,30.25,SE,145,0.0,0.0,88,0.00,,---,0.00,VWS V14.01,2013-08-17 10:46:00,
2013-08-17 06:51:00,52.9,49.7,30.25,SE,145,0.0,0.0,89,0.00,,---,0.00,VWS V14.01,2013-08-17 10:51:00,
2013-08-17 06:56:00,52.9,49.7,30.25,SE,145,0.0,0.0,89,0.00,,---,0.00,VWS V14.01,2013-08-17 10:56:00,
2013-08-17 07:01:00,52.7,49.5,30.25,SE,145,0.0,0.0,89,0.00,,---,0.00,VWS V14.01,2013-08-17 11:01:00,
2013-08-17 07:06:00,52.9,49.7,30.25,SE,145,0.0,0.0,89,0.00,,---,0.00,VWS V14.01,2013-08-17 11:06:00,
2013-08-17 07:11:00,52.9,49.7,30.25,SE,145,0.0,0.0,89,0.00,,---,0.00,VWS V14.01,2013-08-17 11:11:00,
2013-08-17 07:16:00,52.9,49.7,30.25,SE,145,0.0,0.0,89,0.00,,---,0.00,VWS V14.01,2013-08-17 11:16:00,
2013-08-17 07:22:00,52.9,49.7,30.25,SE,145,0.0,0.0,89,0.00,,---,0.00,VWS V14.01,2013-08-17 11:22:00,
2013-08-17 07:27:00,52.9,49.7,30.25,SE,145,0.0,0.0,89,0.00,,---,0.00,VWS V14.01,2013-08-17 11:27:00,
2013-08-17 07:32:00,53.1,50.3,30.25,SE,145,0.0,0.0,90,0.00,,---,0.00,VWS V14.01,2013-08-17 11:32:00,
2013-08-17 07:37:00,53.2,50.5,30.25,SE,145,0.0,0.0,90,0.00,,---,0.00,VWS V14.01,2013-08-17 11:37:00,
2013-08-17 07:42:00,53.4,50.7,30.28,SE,145,0.0,0.0,90,0.00,,---,0.00,VWS V14.01,2013-08-17 11:42:00,
2013-08-17 07:47:00,53.6,50.8,30.28,SE,145,0.0,0.0,90,0.00,,---,0.00,VWS V14.01,2013-08-17 11:47:00,
2013-08-17 07:52:00,53.8,51.0,30.28,SE,145,0.0,0.0,90,0.00,,---,0.00,VWS V14.01,2013-08-17 11:52:00,
2013-08-17 07:57:00,54.0,51.2,30.28,SE,145,0.0,0.0,90,0.00,,---,0.00,VWS V14.01,2013-08-17 11:57:00,
2013-08-17 08:03:00,54.1,51.4,30.28,SE,145,0.0,0.0,90,0.00,,---,0.00,VWS V14.01,2013-08-17 12:03:00,
2013-08-17 08:06:00,54.3,51.6,30.28,SE,145,0.0,0.0,90,0.00,,---,0.00,VWS V14.01,2013-08-17 12:06:00,
2013-08-17 08:11:00,54.5,52.2,30.28,SE,145,0.0,0.0,92,0.00,,---,0.00,VWS V14.01,2013-08-17 12:11:00,
2013-08-17 08:16:00,54.7,52.3,30.28,SE,145,0.0,0.0,92,0.00,,---,0.00,VWS V14.01,2013-08-17 12:16:00,
2013-08-17 08:21:00,55.0,52.7,30.28,SE,145,0.0,0.0,92,0.00,,---,0.00,VWS V14.01,2013-08-17 12:21:00,
2013-08-17 08:26:00,55.2,52.9,30.28,SE,145,0.0,0.0,92,0.00,,---,0.00,VWS V14.01,2013-08-17 12:26:00,
2013-08-17 08:31:00,55.6,53.2,30.28,SE,145,0.0,0.0,92,0.00,,---,0.00,VWS V14.01,2013-08-17 12:31:00,
2013-08-17 08:36:00,55.9,53.6,30.28,SE,145,0.0,0.0,92,0.00,,---,0.00,VWS V14.01,2013-08-17 12:36:00,
2013-08-17 08:41:00,56.1,53.8,30.28,SE,145,0.0,0.0,92,0.00,,---,0.00,VWS V14.01,2013-08-17 12:41:00,
2013-08-17 08:46:00,56.5,54.1,30.28,SE,145,0.0,0.0,92,0.00,,---,0.00,VWS V14.01,2013-08-17 12:46:00,
2013-08-17 08:51:00,56.8,54.9,30.28,ENE,72,4.1,5.0,93,0.00,,---,0.00,VWS V14.01,2013-08-17 12:51:00,
2013-08-17 08:56:00,57.9,56.0,30.28,NNE,26,4.1,4.1,93,0.00,,---,0.00,VWS V14.01,2013-08-17 12:56:00,
2013-08-17 09:01:00,58.5,56.5,30.28,NNE,20,0.0,0.0,93,0.00,,---,0.00,VWS V14.01,2013-08-17 13:01:00,
2013-08-17 09:06:00,59.0,56.6,30.28,NNE,19,0.0,0.0,92,0.00,,---,0.00,VWS V14.01,2013-08-17 13:06:00,
2013-08-17 09:12:00,59.5,57.1,30.28,NNE,18,0.0,0.0,92,0.00,,---,0.00,VWS V14.01,2013-08-17 13:12:00,
2013-08-17 09:17:00,59.9,57.1,30.28,North,357,0.0,0.0,90,0.00,,---,0.00,VWS V14.01,2013-08-17 13:17:00,
2013-08-17 09:22:00,60.1,57.2,30.28,North,0,0.0,0.0,90,0.00,,---,0.00,VWS V14.01,2013-08-17 13:22:00,
2013-08-17 09:27:00,60.8,57.5,30.25,North,357,0.0,0.0,89,0.00,,---,0.00,VWS V14.01,2013-08-17 13:27:00,
2013-08-17 09:32:00,61.3,58.1,30.25,WNW,286,0.0,0.0,89,0.00,,---,0.00,VWS V14.01,2013-08-17 13:32:00,
2013-08-17 09:37:00,61.5,57.8,30.25,WNW,286,0.0,0.0,88,0.00,,---,0.00,VWS V14.01,2013-08-17 13:37:00,
2013-08-17 09:42:00,62.2,58.5,30.28,NNW,331,0.0,0.0,88,0.00,,---,0.00,VWS V14.01,2013-08-17 13:42:00,
2013-08-17 09:47:00,63.0,58.8,30.28,North,10,0.0,5.0,86,0.00,,---,0.00,VWS V14.01,2013-08-17 13:47:00,
2013-08-17 09:53:00,64.8,60.5,30.28,North,9,5.0,5.0,86,0.00,,---,0.00,VWS V14.01,2013-08-17 13:53:00,
2013-08-17 09:58:00,65.7,61.4,30.28,North,9,0.0,0.0,86,0.00,,---,0.00,VWS V14.01,2013-08-17 13:58:00,
2013-08-17 10:03:00,66.2,60.5,30.28,North,9,0.0,0.0,82,0.00,,---,0.00,VWS V14.01,2013-08-17 14:03:00,
2013-08-17 10:08:00,66.7,61.1,30.28,North,0,5.0,5.0,82,0.00,,---,0.00,VWS V14.01,2013-08-17 14:08:00,
2013-08-17 10:13:00,67.3,60.6,30.25,North,0,0.0,0.0,79,0.00,,---,0.00,VWS V14.01,2013-08-17 14:13:00,
2013-08-17 10:18:00,67.8,60.7,30.25,NNE,13,0.0,0.0,78,0.00,,---,0.00,VWS V14.01,2013-08-17 14:18:00,
2013-08-17 10:23:00,68.0,59.8,30.25,South,171,0.0,0.0,75,0.00,,---,0.00,VWS V14.01,2013-08-17 14:23:00,
2013-08-17 10:28:00,67.6,58.4,30.28,NNW,343,0.0,0.0,72,0.00,,---,0.00,VWS V14.01,2013-08-17 14:28:00,
2013-08-17 10:33:00,67.5,58.2,30.28,North,0,5.0,7.4,72,0.00,,---,0.00,VWS V14.01,2013-08-17 14:33:00,
2013-08-17 10:39:00,67.6,58.4,30.28,SSE,166,0.0,0.0,72,0.00,,---,0.00,VWS V14.01,2013-08-17 14:39:00,
2013-08-17 10:44:00,67.6,57.9,30.28,North,4,0.0,0.0,71,0.00,,---,0.00,VWS V14.01,2013-08-17 14:44:00,
2013-08-17 10:49:00,67.6,57.3,30.28,NNW,338,0.0,0.0,70,0.00,,---,0.00,VWS V14.01,2013-08-17 14:49:00,
2013-08-17 10:54:00,67.5,56.0,30.28,NNW,338,0.0,0.0,67,0.00,,---,0.00,VWS V14.01,2013-08-17 14:54:00,
2013-08-17 10:59:00,67.5,56.6,30.28,North,0,5.0,5.0,68,0.00,,---,0.00,VWS V14.01,2013-08-17 14:59:00,
2013-08-17 11:04:00,67.5,56.0,30.28,North,2,0.0,4.1,67,0.00,,---,0.00,VWS V14.01,2013-08-17 15:04:00,
2013-08-17 11:09:00,67.3,55.8,30.28,North,9,8.3,8.3,67,0.00,,---,0.00,VWS V14.01,2013-08-17 15:09:00,
2013-08-17 11:14:00,67.5,56.6,30.28,North,353,0.0,0.0,68,0.00,,---,0.00,VWS V14.01,2013-08-17 15:14:00,
2013-08-17 11:19:00,68.0,57.1,30.28,North,353,6.6,6.6,68,0.00,,---,0.00,VWS V14.01,2013-08-17 15:19:00,
2013-08-17 11:24:00,68.5,57.0,30.28,SSE,158,0.0,0.0,67,0.00,,---,0.00,VWS V14.01,2013-08-17 15:24:00,
2013-08-17 11:30:00,68.7,56.6,30.28,SE,124,5.8,7.4,65,0.00,,---,0.00,VWS V14.01,2013-08-17 15:30:00,
2013-08-17 11:35:00,69.1,57.0,30.28,ENE,70,5.0,9.1,65,0.00,,---,0.00,VWS V14.01,2013-08-17 15:35:00,
2013-08-17 11:40:00,69.6,57.5,30.28,ESE,122,10.8,11.6,65,0.00,,---,0.00,VWS V14.01,2013-08-17 15:40:00,
2013-08-17 11:45:00,70.0,56.6,30.28,SSE,158,0.0,0.0,63,0.00,,---,0.00,VWS V14.01,2013-08-17 15:45:00,
2013-08-17 11:50:00,70.3,56.3,30.28,SE,135,5.0,7.4,61,0.00,,---,0.00,VWS V14.01,2013-08-17 15:50:00,
2013-08-17 11:55:00,70.7,56.0,30.28,ESE,120,5.0,9.9,60,0.00,,---,0.00,VWS V14.01,2013-08-17 15:55:00,
2013-08-17 12:00:00,70.9,55.6,30.28,ENE,58,0.0,4.1,58,0.00,,---,0.00,VWS V14.01,2013-08-17 16:00:00,
2013-08-17 12:05:00,70.7,55.4,30.28,East,80,5.0,5.0,58,0.00,,---,0.00,VWS V14.01,2013-08-17 16:05:00,
2013-08-17 12:10:00,70.7,54.1,30.28,SE,132,9.1,14.9,56,0.00,,---,0.00,VWS V14.01,2013-08-17 16:10:00,
2013-08-17 12:15:00,70.9,53.5,30.25,ESE,122,6.6,11.6,54,0.00,,---,0.00,VWS V14.01,2013-08-17 16:15:00,
2013-08-17 12:20:00,71.1,53.0,30.25,ENE,76,6.6,14.1,53,0.00,,---,0.00,VWS V14.01,2013-08-17 16:20:00,
2013-08-17 12:25:00,70.9,52.1,30.25,East,84,11.6,11.6,51,0.00,,---,0.00,VWS V14.01,2013-08-17 16:25:00,
2013-08-17 12:30:00,70.9,52.1,30.25,SE,141,5.8,5.8,51,0.00,,---,0.00,VWS V14.01,2013-08-17 16:30:00,
2013-08-17 12:35:00,70.9,52.1,30.25,SE,139,6.6,14.9,51,0.00,,---,0.00,VWS V14.01,2013-08-17 16:35:00,
2013-08-17 12:41:00,71.1,52.3,30.25,SE,126,6.6,6.6,51,0.00,,---,0.00,VWS V14.01,2013-08-17 16:41:00,
2013-08-17 12:46:00,71.2,52.4,30.25,SE,136,9.9,9.9,51,0.00,,---,0.00,VWS V14.01,2013-08-17 16:46:00,
2013-08-17 12:51:00,71.4,51.8,30.25,North,4,0.0,4.1,50,0.00,,---,0.00,VWS V14.01,2013-08-17 16:51:00,
2013-08-17 12:56:00,71.6,52.0,30.25,ESE,106,14.1,14.1,50,0.00,,---,0.00,VWS V14.01,2013-08-17 16:56:00,
2013-08-17 13:01:00,71.8,52.2,30.25,North,10,7.4,7.4,50,0.00,,---,0.00,VWS V14.01,2013-08-17 17:01:00,
2013-08-17 13:06:00,71.8,52.2,30.25,NNE,23,5.8,10.8,50,0.00,,---,0.00,VWS V14.01,2013-08-17 17:06:00,
2013-08-17 13:11:00,71.8,52.2,30.25,NNE,31,7.4,7.4,50,0.00,,---,0.00,VWS V14.01,2013-08-17 17:11:00,
2013-08-17 13:16:00,72.1,53.3,30.25,SSE,162,6.6,10.8,51,0.00,,---,0.00,VWS V14.01,2013-08-17 17:16:00,
2013-08-17 13:21:00,72.5,52.8,30.25,SE,133,7.4,9.9,50,0.00,,---,0.00,VWS V14.01,2013-08-17 17:21:00,
2013-08-17 13:27:00,72.5,52.8,30.25,SSE,156,9.1,14.1,50,0.00,,---,0.00,VWS V14.01,2013-08-17 17:27:00,
2013-08-17 13:32:00,72.5,52.8,30.25,NNE,16,5.0,5.0,50,0.00,,---,0.00,VWS V14.01,2013-08-17 17:32:00,
2013-08-17 13:37:00,72.9,53.2,30.25,NNE,21,6.6,6.6,50,0.00,,---,0.00,VWS V14.01,2013-08-17 17:37:00,
2013-08-17 13:42:00,73.4,53.7,30.25,SE,136,11.6,11.6,50,0.00,,---,0.00,VWS V14.01,2013-08-17 17:42:00,
2013-08-17 13:47:00,73.6,53.1,30.25,SE,128,5.8,6.6,49,0.00,,---,0.00,VWS V14.01,2013-08-17 17:47:00,
2013-08-17 13:52:00,73.4,52.1,30.25,ESE,120,5.8,6.6,47,0.00,,---,0.00,VWS V14.01,2013-08-17 17:52:00,
2013-08-17 13:57:00,73.2,52.0,30.25,SE,139,6.6,9.1,47,0.00,,---,0.00,VWS V14.01,2013-08-17 17:57:00,
2013-08-17 14:02:00,73.0,51.8,30.25,East,85,0.0,5.0,47,0.00,,---,0.00,VWS V14.01,2013-08-17 18:02:00,
2013-08-17 14:07:00,72.9,51.6,30.25,NNE,28,5.8,5.8,47,0.00,,---,0.00,VWS V14.01,2013-08-17 18:07:00,
2013-08-17 14:12:00,72.9,51.6,30.25,NNE,32,4.1,9.9,47,0.00,,---,0.00,VWS V14.01,2013-08-17 18:12:00,
2013-08-17 14:17:00,73.0,51.8,30.25,South,179,0.0,9.9,47,0.00,,---,0.00,VWS V14.01,2013-08-17 18:17:00,
2013-08-17 14:23:00,73.4,52.1,30.25,North,10,8.3,10.8,47,0.00,,---,0.00,VWS V14.01,2013-08-17 18:23:00,
2013-08-17 14:28:00,73.6,52.3,30.25,ESE,120,7.4,7.4,47,0.00,,---,0.00,VWS V14.01,2013-08-17 18:28:00,
2013-08-17 14:33:00,73.8,52.5,30.25,North,0,5.8,6.6,47,0.00,,---,0.00,VWS V14.01,2013-08-17 18:33:00,
2013-08-17 14:38:00,73.9,51.8,30.25,SSE,162,6.6,6.6,46,0.00,,---,0.00,VWS V14.01,2013-08-17 18:38:00,
2013-08-17 14:43:00,73.9,51.8,30.22,SSE,162,6.6,10.8,46,0.00,,---,0.00,VWS V14.01,2013-08-17 18:43:00,
2013-08-17 14:48:00,73.6,51.5,30.22,ESE,109,7.4,7.4,46,0.00,,---,0.00,VWS V14.01,2013-08-17 18:48:00,
2013-08-17 14:53:00,73.4,51.3,30.22,North,353,6.6,11.6,46,0.00,,---,0.00,VWS V14.01,2013-08-17 18:53:00,
2013-08-17 14:58:00,73.6,51.5,30.22,NE,34,5.0,5.8,46,0.00,,---,0.00,VWS V14.01,2013-08-17 18:58:00,
2013-08-17 15:03:00,74.1,52.0,30.22,ENE,58,6.6,6.6,46,0.00,,---,0.00,VWS V14.01,2013-08-17 19:03:00,
2013-08-17 15:08:00,74.5,51.5,30.22,NNE,24,5.8,5.8,44,0.00,,---,0.00,VWS V14.01,2013-08-17 19:08:00,
2013-08-17 15:14:00,74.8,51.8,30.22,SSE,168,14.9,14.9,44,0.00,,---,0.00,VWS V14.01,2013-08-17 19:14:00,
2013-08-17 15:19:00,74.8,51.8,30.22,SE,128,6.6,6.6,44,0.00,,---,0.00,VWS V14.01,2013-08-17 19:19:00,
2013-08-17 15:24:00,74.7,50.8,30.22,ESE,116,10.8,15.3,43,0.00,,---,0.00,VWS V14.01,2013-08-17 19:24:00,
2013-08-17 15:29:00,74.7,50.8,30.22,SSE,150,9.9,16.1,43,0.00,,---,0.00,VWS V14.01,2013-08-17 19:29:00,
2013-08-17 15:34:00,74.3,50.4,30.22,ESE,117,5.0,6.6,43,0.00,,---,0.00,VWS V14.01,2013-08-17 19:34:00,
2013-08-17 15:39:00,74.1,50.3,30.22,SSE,162,0.0,7.4,43,0.00,,---,0.00,VWS V14.01,2013-08-17 19:39:00,
2013-08-17 15:44:00,74.5,50.6,30.22,SSE,160,7.4,16.1,43,0.00,,---,0.00,VWS V14.01,2013-08-17 19:44:00,
2013-08-17 15:49:00,74.5,50.6,30.22,SE,141,16.1,17.0,43,0.00,,---,0.00,VWS V14.01,2013-08-17 19:49:00,
2013-08-17 15:54:00,74.3,50.4,30.22,SE,137,14.9,14.9,43,0.00,,---,0.00,VWS V14.01,2013-08-17 19:54:00,
2013-08-17 16:00:00,74.1,50.3,30.22,SE,139,18.6,18.6,43,0.00,,---,0.00,VWS V14.01,2013-08-17 20:00:00,
2013-08-17 16:05:00,73.9,50.1,30.22,SE,146,11.6,14.1,43,0.00,,---,0.00,VWS V14.01,2013-08-17 20:05:00,
2013-08-17 16:10:00,73.6,49.8,30.22,East,100,11.6,14.9,43,0.00,,---,0.00,VWS V14.01,2013-08-17 20:10:00,
2013-08-17 16:15:00,73.4,49.6,30.22,SSE,154,15.3,15.3,43,0.00,,---,0.00,VWS V14.01,2013-08-17 20:15:00,
2013-08-17 16:20:00,73.0,50.2,30.22,ESE,109,9.9,10.8,44,0.00,,---,0.00,VWS V14.01,2013-08-17 20:20:00,
2013-08-17 16:25:00,73.2,50.3,30.22,SSE,155,7.4,14.9,44,0.00,,---,0.00,VWS V14.01,2013-08-17 20:25:00,
2013-08-17 16:30:00,73.2,50.3,30.22,SE,130,9.9,11.6,44,0.00,,---,0.00,VWS V14.01,2013-08-17 20:30:00,
2013-08-17 16:36:00,73.2,50.3,30.22,ESE,122,16.1,19.5,44,0.00,,---,0.00,VWS V14.01,2013-08-17 20:36:00,
2013-08-17 16:41:00,72.9,50.0,30.22,ESE,120,5.0,5.8,44,0.00,,---,0.00,VWS V14.01,2013-08-17 20:41:00,
2013-08-17 16:46:00,72.7,49.8,30.22,SSE,158,9.1,9.1,44,0.00,,---,0.00,VWS V14.01,2013-08-17 20:46:00,
2013-08-17 16:51:00,72.3,49.5,30.22,ESE,109,7.4,9.1,44,0.00,,---,0.00,VWS V14.01,2013-08-17 20:51:00,
2013-08-17 16:56:00,72.1,49.3,30.22,SSE,148,9.1,9.1,44,0.00,,---,0.00,VWS V14.01,2013-08-17 20:56:00,
2013-08-17 17:01:00,71.8,49.0,30.22,SSE,164,0.0,5.8,44,0.00,,---,0.00,VWS V14.01,2013-08-17 21:01:00,
2013-08-17 17:06:00,71.6,49.7,30.22,South,182,0.0,5.8,46,0.00,,---,0.00,VWS V14.01,2013-08-17 21:06:00,
2013-08-17 17:11:00,71.6,49.7,30.22,SE,137,6.6,6.6,46,0.00,,---,0.00,VWS V14.01,2013-08-17 21:11:00,
2013-08-17 17:16:00,71.4,49.5,30.22,SE,135,0.0,0.0,46,0.00,,---,0.00,VWS V14.01,2013-08-17 21:16:00,
2013-08-17 17:21:00,71.2,49.3,30.22,SE,142,5.0,7.4,46,0.00,,---,0.00,VWS V14.01,2013-08-17 21:21:00,
2013-08-17 17:27:00,71.1,49.2,30.22,ESE,119,0.0,0.0,46,0.00,,---,0.00,VWS V14.01,2013-08-17 21:27:00,
2013-08-17 17:32:00,71.1,50.0,30.22,South,171,0.0,0.0,47,0.00,,---,0.00,VWS V14.01,2013-08-17 21:32:00,
2013-08-17 17:37:00,71.1,50.0,30.22,East,99,0.0,0.0,47,0.00,,---,0.00,VWS V14.01,2013-08-17 21:37:00,
2013-08-17 17:42:00,71.1,50.0,30.22,South,177,0.0,0.0,47,0.00,,---,0.00,VWS V14.01,2013-08-17 21:42:00,
2013-08-17 17:47:00,71.1,50.0,30.22,SE,126,0.0,0.0,47,0.00,,---,0.00,VWS V14.01,2013-08-17 21:47:00,
2013-08-17 17:52:00,70.9,50.6,30.22,NNE,33,5.8,5.8,49,0.00,,---,0.00,VWS V14.01,2013-08-17 21:52:00,
2013-08-17 17:57:00,70.9,50.6,30.22,NE,40,0.0,0.0,49,0.00,,---,0.00,VWS V14.01,2013-08-17 21:57:00,
2013-08-17 18:02:00,70.9,50.6,30.22,North,7,7.4,9.1,49,0.00,,---,0.00,VWS V14.01,2013-08-17 22:02:00,
2013-08-17 18:08:00,70.7,50.4,30.22,NE,56,0.0,0.0,49,0.00,,---,0.00,VWS V14.01,2013-08-17 22:08:00,
2013-08-17 18:13:00,70.5,50.3,30.22,NNE,16,4.1,5.0,49,0.00,,---,0.00,VWS V14.01,2013-08-17 22:13:00,
2013-08-17 18:18:00,70.3,50.1,30.22,NE,44,4.1,4.1,49,0.00,,---,0.00,VWS V14.01,2013-08-17 22:18:00,
2013-08-17 18:23:00,70.2,49.9,30.22,NE,37,0.0,0.0,49,0.00,,---,0.00,VWS V14.01,2013-08-17 22:23:00,
2013-08-17 18:28:00,70.0,49.8,30.22,NE,41,0.0,0.0,49,0.00,,---,0.00,VWS V14.01,2013-08-17 22:28:00,
2013-08-17 18:33:00,69.8,49.6,30.22,NE,36,0.0,0.0,49,0.00,,---,0.00,VWS V14.01,2013-08-17 22:33:00,
2013-08-17 18:38:00,69.6,50.2,30.22,NNE,17,0.0,0.0,50,0.00,,---,0.00,VWS V14.01,2013-08-17 22:38:00,
2013-08-17 18:43:00,69.6,50.2,30.22,NW,312,5.8,5.8,50,0.00,,---,0.00,VWS V14.01,2013-08-17 22:43:00,
2013-08-17 18:48:00,69.4,50.0,30.22,East,83,0.0,0.0,50,0.00,,---,0.00,VWS V14.01,2013-08-17 22:48:00,
2013-08-17 18:54:00,69.4,50.8,30.22,ENE,78,0.0,0.0,51,0.00,,---,0.00,VWS V14.01,2013-08-17 22:54:00,
2013-08-17 18:59:00,69.3,50.6,30.22,NNE,23,6.6,6.6,51,0.00,,---,0.00,VWS V14.01,2013-08-17 22:59:00,
2013-08-17 19:04:00,69.3,50.6,30.22,NNE,23,0.0,0.0,51,0.00,,---,0.00,VWS V14.01,2013-08-17 23:04:00,
2013-08-17 19:09:00,69.3,50.6,30.22,NNE,25,5.8,5.8,51,0.00,,---,0.00,VWS V14.01,2013-08-17 23:09:00,
2013-08-17 19:14:00,69.1,50.4,30.22,ENE,59,4.1,4.1,51,0.00,,---,0.00,VWS V14.01,2013-08-17 23:14:00,
2013-08-17 19:19:00,69.1,50.4,30.22,NNE,24,0.0,0.0,51,0.00,,---,0.00,VWS V14.01,2013-08-17 23:19:00,
2013-08-17 19:24:00,68.9,50.3,30.22,NE,42,0.0,0.0,51,0.00,,---,0.00,VWS V14.01,2013-08-17 23:24:00,
2013-08-17 19:29:00,68.7,50.1,30.22,NE,40,4.1,5.8,51,0.00,,---,0.00,VWS V14.01,2013-08-17 23:29:00,
2013-08-17 19:34:00,68.5,49.2,30.22,SE,143,0.0,0.0,50,0.00,,---,0.00,VWS V14.01,2013-08-17 23:34:00,
2013-08-17 19:39:00,68.5,49.2,30.22,SE,143,0.0,0.0,50,0.00,,---,0.00,VWS V14.01,2013-08-17 23:39:00,
2013-08-17 19:44:00,68.4,49.0,30.22,NNE,33,0.0,0.0,50,0.00,,---,0.00,VWS V14.01,2013-08-17 23:44:00,
2013-08-17 19:49:00,68.4,49.0,30.22,NNE,32,0.0,0.0,50,0.00,,---,0.00,VWS V14.01,2013-08-17 23:49:00,
2013-08-17 19:54:00,68.2,48.9,30.22,NNE,33,0.0,0.0,50,0.00,,---,0.00,VWS V14.01,2013-08-17 23:54:00,
2013-08-17 19:59:00,68.2,48.9,30.22,ENE,71,0.0,5.0,50,0.00,,---,0.00,VWS V14.01,2013-08-17 23:59:00,
2013-08-17 20:04:00,68.0,48.7,30.22,NE,45,0.0,0.0,50,0.00,,---,0.00,VWS V14.01,2013-08-18 00:04:00,
2013-08-17 20:10:00,68.0,48.7,30.22,NE,34,4.1,6.6,50,0.00,,---,0.00,VWS V14.01,2013-08-18 00:10:00,
2013-08-17 20:15:00,68.0,48.7,30.22,NNE,28,0.0,7.4,50,0.00,,---,0.00,VWS V14.01,2013-08-18 00:15:00,
2013-08-17 20:20:00,67.8,48.5,30.22,NE,35,0.0,0.0,50,0.00,,---,0.00,VWS V14.01,2013-08-18 00:20:00,
2013-08-17 20:25:00,67.8,48.5,30.22,North,7,0.0,0.0,50,0.00,,---,0.00,VWS V14.01,2013-08-18 00:25:00,
2013-08-17 20:30:00,67.8,48.5,30.25,North,7,0.0,0.0,50,0.00,,---,0.00,VWS V14.01,2013-08-18 00:30:00,
2013-08-17 20:35:00,67.6,48.4,30.25,North,7,0.0,0.0,50,0.00,,---,0.00,VWS V14.01,2013-08-18 00:35:00,
2013-08-17 20:40:00,67.6,48.4,30.25,ESE,114,0.0,0.0,50,0.00,,---,0.00,VWS V14.01,2013-08-18 00:40:00,
2013-08-17 20:45:00,67.5,48.2,30.25,ESE,114,0.0,0.0,50,0.00,,---,0.00,VWS V14.01,2013-08-18 00:45:00,
2013-08-17 20:50:00,67.5,48.2,30.25,ESE,114,0.0,0.0,50,0.00,,---,0.00,VWS V14.01,2013-08-18 00:50:00,
2013-08-17 20:55:00,67.3,48.0,30.25,ESE,110,5.0,8.3,50,0.00,,---,0.00,VWS V14.01,2013-08-18 00:55:00,
2013-08-17 21:00:00,67.1,48.6,30.25,ESE,121,4.1,5.0,51,0.00,,---,0.00,VWS V14.01,2013-08-18 01:00:00,
2013-08-17 21:06:00,67.1,48.6,30.25,SE,135,7.4,7.4,51,0.00,,---,0.00,VWS V14.01,2013-08-18 01:06:00,
2013-08-17 21:11:00,66.9,48.5,30.25,SE,136,0.0,0.0,51,0.00,,---,0.00,VWS V14.01,2013-08-18 01:11:00,
2013-08-17 21:16:00,66.7,49.0,30.25,SE,137,0.0,0.0,53,0.00,,---,0.00,VWS V14.01,2013-08-18 01:16:00,
2013-08-17 21:21:00,66.6,48.8,30.25,SE,134,0.0,0.0,53,0.00,,---,0.00,VWS V14.01,2013-08-18 01:21:00,
2013-08-17 21:26:00,66.4,49.3,30.25,North,4,0.0,0.0,54,0.00,,---,0.00,VWS V14.01,2013-08-18 01:26:00,
2013-08-17 21:31:00,66.2,49.9,30.25,North,4,0.0,0.0,56,0.00,,---,0.00,VWS V14.01,2013-08-18 01:31:00,
2013-08-17 21:36:00,66.2,49.9,30.25,North,4,0.0,0.0,56,0.00,,---,0.00,VWS V14.01,2013-08-18 01:36:00,
2013-08-17 21:41:00,66.0,50.4,30.25,North,4,0.0,0.0,57,0.00,,---,0.00,VWS V14.01,2013-08-18 01:41:00,
2013-08-17 21:46:00,65.7,50.7,30.25,North,4,0.0,0.0,58,0.00,,---,0.00,VWS V14.01,2013-08-18 01:46:00,
2013-08-17 21:51:00,65.5,51.1,30.25,North,4,0.0,0.0,60,0.00,,---,0.00,VWS V14.01,2013-08-18 01:51:00,
2013-08-17 21:57:00,65.1,50.8,30.25,North,4,0.0,0.0,60,0.00,,---,0.00,VWS V14.01,2013-08-18 01:57:00,
2013-08-17 22:02:00,64.8,51.1,30.25,North,4,0.0,0.0,61,0.00,,---,0.00,VWS V14.01,2013-08-18 02:02:00,
2013-08-17 22:07:00,64.4,50.7,30.25,North,4,0.0,0.0,61,0.00,,---,0.00,VWS V14.01,2013-08-18 02:07:00,
2013-08-17 22:12:00,64.2,51.2,30.25,North,4,0.0,0.0,63,0.00,,---,0.00,VWS V14.01,2013-08-18 02:12:00,
2013-08-17 22:17:00,64.0,51.0,30.25,North,4,0.0,0.0,63,0.00,,---,0.00,VWS V14.01,2013-08-18 02:17:00,
2013-08-17 22:22:00,63.9,51.4,30.25,North,4,0.0,0.0,64,0.00,,---,0.00,VWS V14.01,2013-08-18 02:22:00,
2013-08-17 22:27:00,64.0,51.6,30.22,North,4,0.0,0.0,64,0.00,,---,0.00,VWS V14.01,2013-08-18 02:27:00,
2013-08-17 22:32:00,64.0,52.2,30.22,North,4,0.0,0.0,65,0.00,,---,0.00,VWS V14.01,2013-08-18 02:32:00,
2013-08-17 22:38:00,64.2,52.4,30.22,North,4,0.0,0.0,65,0.00,,---,0.00,VWS V14.01,2013-08-18 02:38:00,
2013-08-17 22:43:00,64.2,52.9,30.25,North,4,0.0,0.0,67,0.00,,---,0.00,VWS V14.01,2013-08-18 02:43:00,
2013-08-17 22:48:00,64.2,52.9,30.25,North,4,0.0,0.0,67,0.00,,---,0.00,VWS V14.01,2013-08-18 02:48:00,
2013-08-17 22:53:00,64.0,53.3,30.25,North,4,0.0,0.0,68,0.00,,---,0.00,VWS V14.01,2013-08-18 02:53:00,
2013-08-17 22:58:00,64.0,53.3,30.25,North,4,0.0,0.0,68,0.00,,---,0.00,VWS V14.01,2013-08-18 02:58:00,
2013-08-17 23:03:00,64.2,54.0,30.25,SE,140,0.0,4.1,70,0.00,,---,0.00,VWS V14.01,2013-08-18 03:03:00,
2013-08-17 23:08:00,64.2,54.0,30.25,SE,140,0.0,0.0,70,0.00,,---,0.00,VWS V14.01,2013-08-18 03:08:00,
2013-08-17 23:13:00,64.4,54.2,30.25,SE,140,0.0,0.0,70,0.00,,---,0.00,VWS V14.01,2013-08-18 03:13:00,
2013-08-17 23:18:00,64.2,54.6,30.25,SE,139,0.0,0.0,71,0.00,,---,0.00,VWS V14.01,2013-08-18 03:18:00,
2013-08-17 23:23:00,64.0,54.4,30.25,SE,139,0.0,0.0,71,0.00,,---,0.00,VWS V14.01,2013-08-18 03:23:00,
2013-08-17 23:29:00,64.0,54.4,30.25,SE,139,0.0,0.0,71,0.00,,---,0.00,VWS V14.01,2013-08-18 03:29:00,
2013-08-17 23:34:00,64.0,55.0,30.25,SE,139,0.0,0.0,72,0.00,,---,0.00,VWS V14.01,2013-08-18 03:34:00,
2013-08-17 23:39:00,64.0,55.0,30.25,SE,139,0.0,0.0,72,0.00,,---,0.00,VWS V14.01,2013-08-18 03:39:00,
2013-08-17 23:44:00,63.9,54.8,30.25,SE,139,0.0,0.0,72,0.00,,---,0.00,VWS V14.01,2013-08-18 03:44:00,
2013-08-17 23:49:00,63.9,55.3,30.25,SE,139,0.0,0.0,74,0.00,,---,0.00,VWS V14.01,2013-08-18 03:49:00,
2013-08-17 23:54:00,63.7,55.1,30.25,SE,139,0.0,0.0,74,0.00,,---,0.00,VWS V14.01,2013-08-18 03:54:00,
2013-08-17 23:59:00,63.7,55.1,30.25,SE,139,0.0,0.0,74,0.00,,---,0.00,VWS V14.01,2013-08-18 03:59:00,